Time;durP1;ratioP1;P1;durP2;ratioP2;P2;SDS_P1;SDS_P2;PMS_P1;PMS_P2;Temp;Humidity;BMP_temperature;BMP_pressure;BME280_temperature;BME280_humidity;BME280_pressure;Samples;Min_cycle;Max_cycle;Signal;HPM_P1;HPM_P2
2022/03/11 00:01:16;;;;;;;19.10;11.05;;;2.10;85.30;;;;;;5001545;28;20038;-34
2022/03/11 00:03:42;;;;;;;22.85;11.10;;;2.00;84.90;;;;;;5000465;28;20026;-34
2022/03/11 00:06:08;;;;;;;20.70;11.43;;;2.00;85.20;;;;;;5002672;28;20080;-34
2022/03/11 00:08:34;;;;;;;20.40;10.45;;;2.10;82.10;;;;;;5005798;28;20549;-34
2022/03/11 00:10:59;;;;;;;22.13;10.23;;;2.10;81.80;;;;;;5005150;28;20029;-33
2022/03/11 00:13:25;;;;;;;20.48;9.48;;;2.00;80.80;;;;;;5004185;28;20403;-34
2022/03/11 00:15:50;;;;;;;20.02;9.63;;;1.90;81.70;;;;;;5002783;28;20092;-34
2022/03/11 00:18:17;;;;;;;16.90;8.93;;;1.90;80.20;;;;;;4998969;28;20455;-34
2022/03/11 00:20:42;;;;;;;18.20;8.93;;;1.90;78.10;;;;;;4995674;28;20018;-35
2022/03/11 00:23:08;;;;;;;19.35;8.98;;;1.80;79.50;;;;;;5003904;28;20070;-34
2022/03/11 00:25:34;;;;;;;15.35;8.27;;;1.70;79.40;;;;;;5001199;28;20029;-35
2022/03/11 00:27:59;;;;;;;19.63;9.85;;;1.60;78.60;;;;;;5005234;28;20026;-34
2022/03/11 00:30:29;;;;;;;16.58;9.15;;;1.60;77.40;;;;;;5002827;28;20026;-34
2022/03/11 00:32:55;;;;;;;16.90;8.63;;;1.50;76.60;;;;;;5004350;28;20101;-33
2022/03/11 00:35:21;;;;;;;17.55;8.77;;;1.50;75.80;;;;;;5005999;28;20100;-35
2022/03/11 00:37:47;;;;;;;15.82;8.43;;;1.40;75.70;;;;;;5000202;28;20029;-34
2022/03/11 00:40:13;;;;;;;14.02;7.97;;;1.20;76.50;;;;;;5005292;28;20026;-34
2022/03/11 00:42:43;;;;;;;14.57;7.43;;;1.30;73.90;;;;;;5006592;28;20033;-33
2022/03/11 00:45:09;;;;;;;14.95;6.88;;;1.20;72.80;;;;;;5005637;28;20056;-34
2022/03/11 00:47:35;;;;;;;11.98;6.43;;;1.20;68.20;;;;;;5008014;28;20033;-34
2022/03/11 00:50:00;;;;;;;14.27;7.28;;;1.30;67.50;;;;;;5004335;28;20041;-34
2022/03/11 00:52:27;;;;;;;13.30;5.88;;;1.10;66.90;;;;;;5005424;28;20503;-36
2022/03/11 00:54:53;;;;;;;11.18;6.30;;;1.30;63.70;;;;;;5001469;28;20046;-34
2022/03/11 00:57:19;;;;;;;10.75;6.25;;;1.20;62.60;;;;;;5006178;28;20073;-34
2022/03/11 00:59:44;;;;;;;10.60;6.20;;;1.10;62.40;;;;;;5006243;28;20436;-34
2022/03/11 01:02:10;;;;;;;9.13;5.72;;;1.10;62.90;;;;;;5009631;28;20399;-34
2022/03/11 01:04:35;;;;;;;10.52;5.60;;;1.00;61.90;;;;;;5003130;28;20062;-33
2022/03/11 01:07:01;;;;;;;10.07;5.40;;;1.20;60.40;;;;;;5007987;28;20049;-35
2022/03/11 01:09:27;;;;;;;10.10;5.40;;;1.10;60.00;;;;;;5002172;28;20104;-36
2022/03/11 01:11:52;;;;;;;10.40;5.88;;;1.10;59.20;;;;;;5006162;28;20038;-33
2022/03/11 01:14:18;;;;;;;11.98;4.95;;;1.10;59.40;;;;;;5007481;28;20100;-35
2022/03/11 01:16:44;;;;;;;10.10;5.63;;;1.00;57.80;;;;;;5002710;28;20029;-37
2022/03/11 01:19:10;;;;;;;12.35;6.68;;;0.90;58.10;;;;;;5005708;28;20513;-34
2022/03/11 01:21:35;;;;;;;8.32;5.55;;;0.90;58.50;;;;;;5006239;28;20116;-33
2022/03/11 01:24:01;;;;;;;13.40;6.72;;;0.80;60.30;;;;;;5007827;28;20030;-34
2022/03/11 01:26:26;;;;;;;13.95;6.07;;;0.70;61.30;;;;;;4998742;28;20116;-34
2022/03/11 01:28:53;;;;;;;9.32;5.13;;;0.70;60.90;;;;;;5005213;28;20141;-34
2022/03/11 01:31:19;;;;;;;9.38;4.85;;;0.60;60.60;;;;;;5006746;28;20376;-34
2022/03/11 01:33:45;;;;;;;8.25;4.95;;;0.50;60.90;;;;;;5000704;28;20033;-33
2022/03/11 01:36:12;;;;;;;9.38;4.63;;;0.50;61.40;;;;;;4999093;28;20037;-34
2022/03/11 01:38:38;;;;;;;8.73;5.45;;;0.40;60.90;;;;;;5002331;28;20455;-33
2022/03/11 01:41:05;;;;;;;8.65;4.70;;;0.40;61.00;;;;;;5003039;28;20068;-33
2022/03/11 01:43:50;;;;;;;10.52;4.97;;;0.40;61.70;;;;;;5001240;28;20561;-34
2022/03/11 01:46:15;;;;;;;9.25;4.57;;;0.20;60.80;;;;;;5003120;28;20104;-34
2022/03/11 01:48:41;;;;;;;9.57;5.45;;;0.40;60.80;;;;;;5002982;28;20081;-33
2022/03/11 01:51:06;;;;;;;10.30;4.45;;;0.20;61.10;;;;;;5002287;28;20052;-35
2022/03/11 01:53:32;;;;;;;10.23;4.80;;;0.20;60.80;;;;;;4999953;28;20033;-34
2022/03/11 01:55:58;;;;;;;8.88;4.68;;;0.00;61.80;;;;;;5004996;28;20029;-34
2022/03/11 01:58:24;;;;;;;8.30;4.50;;;-0.20;62.20;;;;;;5001984;28;20388;-34
2022/03/11 02:00:50;;;;;;;9.15;4.55;;;-0.10;61.70;;;;;;5007347;28;20510;-34
2022/03/11 02:03:15;;;;;;;7.00;4.43;;;0.00;60.10;;;;;;5004898;28;20097;-33
2022/03/11 02:05:43;;;;;;;10.68;4.35;;;0.00;59.20;;;;;;5001119;28;20037;-36
2022/03/11 02:08:09;;;;;;;5.45;3.88;;;0.00;59.10;;;;;;5008455;28;20087;-35
2022/03/11 02:10:35;;;;;;;9.18;5.15;;;0.00;59.00;;;;;;5004237;28;20026;-34
2022/03/11 02:13:05;;;;;;;7.93;4.20;;;-0.10;59.40;;;;;;5004683;28;20034;-34
2022/03/11 02:15:31;;;;;;;6.03;3.95;;;-0.10;58.50;;;;;;5004442;28;20502;-35
2022/03/11 02:17:56;;;;;;;8.57;5.10;;;-0.20;59.40;;;;;;5007383;28;20050;-34
2022/03/11 02:20:22;;;;;;;5.32;4.10;;;-0.20;59.60;;;;;;5003927;28;20030;-33
2022/03/11 02:22:50;;;;;;;7.55;3.65;;;-0.30;57.60;;;;;;4998369;28;20116;-34
2022/03/11 02:25:16;;;;;;;5.15;3.35;;;-0.30;57.40;;;;;;5003517;28;20036;-34
2022/03/11 02:27:46;;;;;;;6.28;3.75;;;-0.40;59.10;;;;;;5004501;28;20037;-34
2022/03/11 02:30:20;;;;;;;8.73;4.22;;;-0.40;57.80;;;;;;5004108;28;20041;-34
2022/03/11 02:32:46;;;;;;;8.00;3.95;;;-0.30;57.10;;;;;;5002014;28;20507;-34
2022/03/11 02:35:13;;;;;;;6.78;4.00;;;-0.40;57.80;;;;;;5004371;28;20038;-33
2022/03/11 02:37:39;;;;;;;6.47;3.88;;;-0.60;57.60;;;;;;5008355;28;20045;-34
2022/03/11 02:40:05;;;;;;;5.93;3.70;;;-0.50;58.00;;;;;;5005582;28;20030;-33
2022/03/11 02:42:31;;;;;;;6.35;3.67;;;-0.50;57.20;;;;;;5004308;28;20545;-34
2022/03/11 02:45:07;;;;;;;4.60;3.22;;;-0.50;57.90;;;;;;5002752;28;20041;-34
2022/03/11 02:47:33;;;;;;;6.10;3.85;;;-0.50;57.20;;;;;;5006033;28;20030;-34
2022/03/11 02:49:58;;;;;;;5.30;3.65;;;-0.50;57.60;;;;;;4998502;28;20041;-34
2022/03/11 02:52:26;;;;;;;8.23;3.60;;;-0.60;57.50;;;;;;5002885;28;20026;-33
2022/03/11 02:54:52;;;;;;;4.18;3.53;;;-0.60;56.70;;;;;;5005741;28;20176;-35
2022/03/11 02:57:18;;;;;;;4.65;3.17;;;-0.70;57.10;;;;;;5008122;28;20025;-35
2022/03/11 02:59:45;;;;;;;6.00;3.78;;;-0.80;57.70;;;;;;5004475;28;20157;-34
2022/03/11 03:02:10;;;;;;;3.80;2.60;;;-0.80;57.40;;;;;;4999707;28;20054;-35
2022/03/11 03:04:36;;;;;;;3.42;3.13;;;-0.80;58.00;;;;;;5005029;28;20435;-34
2022/03/11 03:07:02;;;;;;;3.83;2.83;;;-0.80;57.50;;;;;;5003479;28;20029;-34
2022/03/11 03:09:28;;;;;;;6.35;3.60;;;-0.90;57.60;;;;;;5002651;28;20037;-35
2022/03/11 03:11:53;;;;;;;10.68;3.60;;;-0.90;58.80;;;;;;5004281;28;20041;-34
2022/03/11 03:14:19;;;;;;;8.30;3.05;;;-0.90;58.30;;;;;;5002603;28;20033;-34
2022/03/11 03:16:45;;;;;;;4.75;3.55;;;-1.00;58.20;;;;;;5004257;28;20038;-34
2022/03/11 03:19:11;;;;;;;4.45;3.03;;;-1.10;60.20;;;;;;5004752;28;20045;-34
2022/03/11 03:21:37;;;;;;;13.02;4.70;;;-1.10;59.80;;;;;;5004285;28;20674;-33
2022/03/11 03:24:02;;;;;;;5.55;3.10;;;-1.10;60.00;;;;;;5001972;28;20109;-34
2022/03/11 03:26:28;;;;;;;8.20;3.78;;;-1.20;60.40;;;;;;4999527;28;20027;-34
2022/03/11 03:28:54;;;;;;;6.00;3.30;;;-1.10;59.90;;;;;;5004033;28;20479;-34
2022/03/11 03:31:21;;;;;;;6.70;3.88;;;-1.20;60.50;;;;;;5008858;28;20033;-34
2022/03/11 03:33:47;;;;;;;7.75;3.85;;;-1.30;61.80;;;;;;5002288;28;20017;-34
2022/03/11 03:36:13;;;;;;;6.53;4.13;;;-1.30;61.80;;;;;;5001662;28;20100;-33
2022/03/11 03:38:39;;;;;;;5.20;4.05;;;-1.20;61.50;;;;;;5004615;28;20026;-33
2022/03/11 03:41:05;;;;;;;7.38;4.35;;;-1.20;61.80;;;;;;5006463;28;20411;-33
2022/03/11 03:43:30;;;;;;;5.38;3.40;;;-1.20;61.40;;;;;;5000719;28;20053;-33
2022/03/11 03:45:56;;;;;;;3.85;3.45;;;-1.30;61.70;;;;;;5001818;28;20121;-35
2022/03/11 03:48:22;;;;;;;10.18;4.57;;;-1.20;61.60;;;;;;5004864;28;20053;-34
2022/03/11 03:50:47;;;;;;;7.05;3.63;;;-1.20;61.80;;;;;;4999548;28;20520;-34
2022/03/11 03:53:13;;;;;;;7.47;3.65;;;-1.30;61.40;;;;;;5000625;28;20054;-33
2022/03/11 03:55:39;;;;;;;4.25;3.63;;;-1.30;61.60;;;;;;5006127;28;20026;-33
2022/03/11 03:58:04;;;;;;;6.07;4.68;;;-1.30;61.80;;;;;;5003343;28;20093;-34
2022/03/11 04:00:30;;;;;;;5.97;4.53;;;-1.40;62.20;;;;;;5005818;28;20033;-34
2022/03/11 04:02:55;;;;;;;3.90;3.33;;;-1.50;62.90;;;;;;5004307;28;20025;-33
2022/03/11 04:05:21;;;;;;;6.85;3.85;;;-1.50;63.50;;;;;;5005504;28;20552;-34
2022/03/11 04:07:48;;;;;;;7.10;3.80;;;-1.50;64.40;;;;;;5005836;28;20092;-33
2022/03/11 04:10:15;;;;;;;6.35;3.50;;;-1.40;63.80;;;;;;5008800;28;20571;-34
2022/03/11 04:12:40;;;;;;;6.45;3.97;;;-1.40;64.30;;;;;;5010247;28;20440;-34
2022/03/11 04:15:07;;;;;;;7.38;5.13;;;-1.40;64.20;;;;;;5007919;28;20038;-34
2022/03/11 04:17:33;;;;;;;7.35;4.20;;;-1.50;65.60;;;;;;5006527;28;20037;-34
2022/03/11 04:20:01;;;;;;;9.35;4.22;;;-1.60;67.80;;;;;;5007350;28;20096;-35
2022/03/11 04:22:27;;;;;;;6.82;4.65;;;-1.60;67.50;;;;;;5006006;28;20022;-35
2022/03/11 04:24:53;;;;;;;6.82;3.40;;;-1.50;66.50;;;;;;5002669;28;20088;-34
2022/03/11 04:27:18;;;;;;;8.15;4.18;;;-1.40;65.30;;;;;;5007298;28;20037;-34
2022/03/11 04:29:44;;;;;;;8.73;4.88;;;-1.50;65.90;;;;;;5004918;28;20030;-34
2022/03/11 04:32:09;;;;;;;6.75;4.43;;;-1.50;66.60;;;;;;5001799;28;20045;-35
2022/03/11 04:34:35;;;;;;;7.00;3.90;;;-1.50;67.30;;;;;;5004003;28;20319;-34
2022/03/11 04:37:00;;;;;;;6.32;4.32;;;-1.50;67.30;;;;;;5005031;28;20072;-34
2022/03/11 04:39:26;;;;;;;5.40;3.88;;;-1.50;67.50;;;;;;5006412;28;20030;-34
2022/03/11 04:41:56;;;;;;;6.07;4.25;;;-1.50;66.60;;;;;;5008717;28;20036;-34
2022/03/11 04:44:22;;;;;;;10.57;4.93;;;-1.50;67.40;;;;;;5006717;28;20014;-35
2022/03/11 04:46:48;;;;;;;5.97;4.22;;;-1.50;66.80;;;;;;5004899;28;20057;-35
2022/03/11 04:49:14;;;;;;;7.82;4.15;;;-1.60;68.00;;;;;;5008564;28;20025;-33
2022/03/11 04:51:40;;;;;;;6.25;4.15;;;-1.50;67.80;;;;;;5006202;28;20423;-34
2022/03/11 04:54:06;;;;;;;5.35;4.05;;;-1.50;68.10;;;;;;5008989;28;20072;-34
2022/03/11 04:56:33;;;;;;;7.60;4.90;;;-1.50;68.30;;;;;;5006715;28;20526;-34
2022/03/11 04:58:59;;;;;;;4.95;3.75;;;-1.50;68.30;;;;;;5004504;28;20030;-34
2022/03/11 05:01:25;;;;;;;8.40;4.95;;;-1.50;67.60;;;;;;5007967;28;20371;-34
2022/03/11 05:03:51;;;;;;;9.77;4.88;;;-1.60;70.70;;;;;;5001585;28;20026;-35
2022/03/11 05:06:17;;;;;;;6.53;4.03;;;-1.70;70.80;;;;;;5007163;28;20471;-34
2022/03/11 05:08:43;;;;;;;5.78;3.58;;;-1.80;71.00;;;;;;5006881;28;20030;-36
2022/03/11 05:11:09;;;;;;;6.28;4.18;;;-1.70;71.90;;;;;;5009028;28;20052;-34
2022/03/11 05:13:34;;;;;;;6.70;3.70;;;-1.80;72.00;;;;;;5005979;28;20037;-34
2022/03/11 05:16:00;;;;;;;7.78;4.43;;;-1.80;72.30;;;;;;5007108;28;20058;-34
2022/03/11 05:18:26;;;;;;;10.43;3.65;;;-1.80;72.20;;;;;;5004628;28;20050;-33
2022/03/11 05:20:52;;;;;;;6.78;4.32;;;-1.80;72.30;;;;;;5004967;28;20080;-34
2022/03/11 05:23:17;;;;;;;8.05;3.92;;;-1.80;72.20;;;;;;5001923;28;20495;-33
2022/03/11 05:25:43;;;;;;;5.93;3.90;;;-1.90;73.10;;;;;;5008669;28;20096;-34
2022/03/11 05:28:09;;;;;;;6.07;4.10;;;-1.90;73.60;;;;;;5005381;28;20117;-34
2022/03/11 05:30:36;;;;;;;7.57;4.03;;;-1.90;73.90;;;;;;5005643;28;20022;-33
2022/03/11 05:33:02;;;;;;;5.70;3.28;;;-1.90;74.10;;;;;;5007652;28;20021;-34
2022/03/11 05:35:28;;;;;;;7.82;3.50;;;-1.80;74.10;;;;;;5003507;28;20049;-33
2022/03/11 05:37:54;;;;;;;7.43;4.18;;;-1.80;73.10;;;;;;5006720;28;20752;-34
2022/03/11 05:40:20;;;;;;;7.35;3.80;;;-1.70;72.90;;;;;;5001466;28;20065;-33
2022/03/11 05:42:45;;;;;;;12.00;5.15;;;-1.80;72.80;;;;;;5007261;28;20056;-34
2022/03/11 05:45:12;;;;;;;5.53;3.90;;;-1.70;72.30;;;;;;5005078;28;20466;-34
2022/03/11 05:47:38;;;;;;;12.75;4.88;;;-1.70;72.30;;;;;;5004745;28;20172;-33
2022/03/11 05:50:05;;;;;;;5.57;3.85;;;-1.70;71.90;;;;;;5005357;28;20037;-34
2022/03/11 05:52:30;;;;;;;8.15;4.32;;;-1.60;71.70;;;;;;5003434;28;20042;-34
2022/03/11 05:54:56;;;;;;;6.82;4.28;;;-1.60;72.00;;;;;;5005209;28;20119;-34
2022/03/11 05:57:21;;;;;;;8.45;4.88;;;-1.60;72.60;;;;;;5003782;28;20040;-34
2022/03/11 05:59:47;;;;;;;4.60;3.50;;;-1.60;73.20;;;;;;5006689;28;20033;-34
2022/03/11 06:02:13;;;;;;;8.68;4.75;;;-1.70;73.60;;;;;;5005771;28;20750;-34
2022/03/11 06:04:38;;;;;;;6.97;3.53;;;-1.60;74.30;;;;;;5004706;28;20152;-34
2022/03/11 06:07:04;;;;;;;6.47;4.30;;;-1.70;75.60;;;;;;5006270;28;20038;-34
2022/03/11 06:09:30;;;;;;;7.65;5.15;;;-1.70;75.90;;;;;;5007508;28;20116;-34
2022/03/11 06:11:56;;;;;;;7.25;3.90;;;-1.70;76.80;;;;;;4998225;28;20063;-33
2022/03/11 06:14:22;;;;;;;6.93;3.95;;;-1.70;76.90;;;;;;5003510;28;20022;-34
2022/03/11 06:16:47;;;;;;;6.22;4.18;;;-1.70;77.70;;;;;;4998687;28;20411;-34
2022/03/11 06:19:13;;;;;;;4.40;3.03;;;-1.70;77.70;;;;;;5007615;28;20510;-34
2022/03/11 06:21:39;;;;;;;6.97;4.63;;;-1.70;79.50;;;;;;5000435;28;20318;-36
2022/03/11 06:24:06;;;;;;;6.80;4.60;;;-1.70;80.00;;;;;;4977518;28;20026;-35
2022/03/11 06:26:31;;;;;;;7.80;4.18;;;-1.80;81.70;;;;;;4998548;28;20100;-34
2022/03/11 06:28:57;;;;;;;7.25;4.40;;;-1.80;85.70;;;;;;5001621;28;20430;-33
2022/03/11 06:31:22;;;;;;;7.70;3.95;;;-1.80;86.60;;;;;;5002355;28;20048;-34
2022/03/11 06:33:48;;;;;;;6.25;4.85;;;-1.70;85.40;;;;;;5003181;28;20052;-33
2022/03/11 06:36:14;;;;;;;7.32;4.55;;;-1.70;88.70;;;;;;5003803;28;20247;-34
2022/03/11 06:38:39;;;;;;;7.43;5.50;;;-1.60;86.40;;;;;;5009066;28;20026;-34
2022/03/11 06:41:05;;;;;;;7.75;4.47;;;-1.50;86.50;;;;;;5008170;28;20025;-34
2022/03/11 06:43:31;;;;;;;7.93;4.30;;;-1.40;86.20;;;;;;5005117;28;20719;-34
2022/03/11 06:45:56;;;;;;;8.80;4.80;;;-1.30;85.80;;;;;;5002992;28;20030;-34
2022/03/11 06:48:22;;;;;;;11.50;5.10;;;-1.20;81.50;;;;;;5005012;28;20398;-34
2022/03/11 06:50:48;;;;;;;13.25;5.55;;;-1.10;82.10;;;;;;5000769;28;20038;-34
2022/03/11 06:53:15;;;;;;;6.80;4.78;;;-1.10;84.10;;;;;;5004723;28;20042;-33
2022/03/11 06:55:41;;;;;;;9.52;5.10;;;-1.00;80.60;;;;;;5003959;28;20026;-35
2022/03/11 06:58:07;;;;;;;8.40;4.78;;;-0.90;79.50;;;;;;4984953;28;20368;-34
2022/03/11 07:00:32;;;;;;;10.10;4.68;;;-0.80;80.10;;;;;;5004195;28;20049;-34
2022/03/11 07:02:58;;;;;;;11.88;6.18;;;-0.70;82.00;;;;;;5006627;28;20014;-34
2022/03/11 07:05:24;;;;;;;10.65;5.40;;;-0.70;80.30;;;;;;5002181;28;20034;-34
2022/03/11 07:07:50;;;;;;;12.63;5.68;;;-0.60;77.40;;;;;;5005282;28;20804;-35
2022/03/11 07:10:16;;;;;;;11.15;5.00;;;-0.60;78.20;;;;;;5004108;28;20105;-34
2022/03/11 07:12:43;;;;;;;18.60;5.60;;;-0.50;78.60;;;;;;5001230;28;20029;-34
2022/03/11 07:15:09;;;;;;;13.55;6.15;;;-0.50;77.60;;;;;;5006029;28;20112;-34
2022/03/11 07:17:34;;;;;;;9.40;5.72;;;-0.40;77.50;;;;;;5006928;28;20442;-34
2022/03/11 07:20:00;;;;;;;12.88;5.90;;;-0.40;75.40;;;;;;5007222;28;20032;-34
2022/03/11 07:22:26;;;;;;;15.57;5.72;;;-0.30;77.20;;;;;;5002711;28;20034;-34
2022/03/11 07:24:52;;;;;;;10.98;6.75;;;-0.30;74.50;;;;;;5007414;28;20036;-34
2022/03/11 07:27:17;;;;;;;9.13;5.47;;;-0.20;73.10;;;;;;5006185;28;20434;-34
2022/03/11 07:29:43;;;;;;;9.40;6.10;;;-0.20;74.50;;;;;;5005976;28;20032;-34
2022/03/11 07:32:12;;;;;;;6.47;5.18;;;-0.10;77.40;;;;;;5003906;28;20475;-33
2022/03/11 07:34:38;;;;;;;7.53;5.07;;;-0.10;73.10;;;;;;5003434;28;20033;-34
2022/03/11 07:37:03;;;;;;;10.45;5.68;;;0.00;73.70;;;;;;5002688;28;20045;-34
2022/03/11 07:39:29;;;;;;;9.00;5.90;;;0.10;73.10;;;;;;5008164;28;20022;-34
2022/03/11 07:41:55;;;;;;;9.75;5.25;;;0.10;71.60;;;;;;5001072;28;20443;-33
2022/03/11 07:44:20;;;;;;;20.08;5.68;;;0.20;73.50;;;;;;5000978;28;20148;-34
2022/03/11 07:46:46;;;;;;;9.18;5.10;;;0.30;73.40;;;;;;5003191;28;20129;-34
2022/03/11 07:49:12;;;;;;;10.98;5.68;;;0.40;71.10;;;;;;5003550;28;20034;-34
2022/03/11 07:51:39;;;;;;;8.50;5.22;;;0.40;70.70;;;;;;5004770;28;20043;-33
2022/03/11 07:54:04;;;;;;;9.13;5.25;;;0.40;71.70;;;;;;5001270;28;20479;-34
2022/03/11 07:56:30;;;;;;;13.70;6.00;;;0.40;70.80;;;;;;4994879;28;20034;-35
2022/03/11 07:58:56;;;;;;;10.52;5.85;;;0.70;76.70;;;;;;4989342;28;20049;-34
2022/03/11 08:01:22;;;;;;;10.77;5.32;;;0.80;73.00;;;;;;4995328;28;20118;-34
2022/03/11 08:03:48;;;;;;;9.02;5.13;;;0.80;71.00;;;;;;4997346;28;20053;-34
2022/03/11 08:06:14;;;;;;;12.88;5.72;;;0.90;68.60;;;;;;4998957;28;20034;-34
2022/03/11 08:08:40;;;;;;;10.25;6.43;;;1.10;72.20;;;;;;5004700;28;20115;-34
2022/03/11 08:11:06;;;;;;;10.60;5.95;;;1.10;67.80;;;;;;4997065;28;20038;-34
2022/03/11 08:13:33;;;;;;;11.63;5.50;;;1.20;67.50;;;;;;4999330;28;20030;-33
2022/03/11 08:16:00;;;;;;;16.38;6.38;;;1.30;68.40;;;;;;5007600;28;20621;-34
2022/03/11 08:18:25;;;;;;;9.43;5.00;;;1.40;69.30;;;;;;5001450;28;20692;-34
2022/03/11 08:20:51;;;;;;;13.38;5.75;;;1.60;70.00;;;;;;4999945;28;20022;-34
2022/03/11 08:23:17;;;;;;;11.95;5.68;;;1.60;67.70;;;;;;5005993;28;20034;-34
2022/03/11 08:25:42;;;;;;;10.48;6.18;;;1.70;66.10;;;;;;4999886;28;20030;-35
2022/03/11 08:28:10;;;;;;;9.50;5.60;;;1.80;74.80;;;;;;4999168;28;20026;-35
2022/03/11 08:30:41;;;;;;;7.95;5.63;;;2.00;66.60;;;;;;4997685;28;20057;-37
2022/03/11 08:33:07;;;;;;;15.07;6.80;;;2.10;67.90;;;;;;4999800;28;20026;-34
2022/03/11 08:35:34;;;;;;;11.30;5.95;;;2.00;64.10;;;;;;5003959;28;20022;-34
2022/03/11 08:38:03;;;;;;;10.32;6.07;;;2.20;67.80;;;;;;5000154;28;20041;-33
2022/03/11 08:40:28;;;;;;;13.85;6.05;;;2.30;64.90;;;;;;5006666;28;20469;-34
2022/03/11 08:42:55;;;;;;;10.50;6.93;;;2.40;66.00;;;;;;5001835;28;20124;-34
2022/03/11 08:45:22;;;;;;;10.82;5.20;;;2.50;71.00;;;;;;4999356;28;20025;-34
2022/03/11 08:47:49;;;;;;;6.80;4.05;;;2.60;62.30;;;;;;4999665;28;20034;-34
2022/03/11 08:50:16;;;;;;;9.93;6.45;;;2.70;61.40;;;;;;4998564;28;20026;-34
2022/03/11 08:52:42;;;;;;;13.82;6.15;;;3.00;62.60;;;;;;5008224;28;20026;-34
2022/03/11 08:55:08;;;;;;;13.32;7.43;;;2.90;62.50;;;;;;5007850;28;20387;-33
2022/03/11 08:57:35;;;;;;;13.75;6.20;;;2.90;61.80;;;;;;5006352;28;20030;-34
2022/03/11 09:00:12;;;;;;;12.35;6.80;;;2.90;64.60;;;;;;5003132;28;20017;-33
2022/03/11 09:02:38;;;;;;;10.05;5.47;;;3.00;61.10;;;;;;5006730;28;20553;-34
2022/03/11 09:05:05;;;;;;;9.70;6.57;;;3.00;61.30;;;;;;5005679;28;20029;-33
2022/03/11 09:07:32;;;;;;;14.13;7.30;;;3.00;60.50;;;;;;5003205;28;20056;-33
2022/03/11 09:09:58;;;;;;;13.40;5.80;;;3.20;61.40;;;;;;5007738;28;20030;-35
2022/03/11 09:12:24;;;;;;;12.50;5.88;;;3.30;59.80;;;;;;5000106;28;20049;-33
2022/03/11 09:14:50;;;;;;;12.63;7.18;;;3.40;57.90;;;;;;4996080;28;20152;-33
2022/03/11 09:17:16;;;;;;;12.52;7.13;;;3.60;56.70;;;;;;4998079;28;20053;-34
2022/03/11 09:19:43;;;;;;;12.02;7.00;;;3.60;57.50;;;;;;4999290;28;20789;-33
2022/03/11 09:22:11;;;;;;;12.97;6.53;;;3.60;58.50;;;;;;4996444;28;20041;-33
2022/03/11 09:24:39;;;;;;;22.35;7.35;;;3.60;58.50;;;;;;5000188;28;20519;-33
2022/03/11 09:27:06;;;;;;;9.68;6.05;;;3.70;59.40;;;;;;5000903;28;20582;-34
2022/03/11 09:29:31;;;;;;;11.18;6.38;;;3.70;57.30;;;;;;4997856;28;20054;-34
2022/03/11 09:31:57;;;;;;;11.18;6.50;;;3.80;59.00;;;;;;4998186;28;20045;-34
2022/03/11 09:34:26;;;;;;;12.25;6.97;;;3.80;60.40;;;;;;5003370;28;20365;-33
2022/03/11 09:36:52;;;;;;;12.63;6.88;;;4.00;59.50;;;;;;5005177;28;20034;-34
2022/03/11 09:39:19;;;;;;;13.05;7.32;;;4.00;56.30;;;;;;4998637;28;20034;-34
2022/03/11 09:41:46;;;;;;;16.33;7.45;;;4.10;59.70;;;;;;5006767;28;20034;-33
2022/03/11 09:44:16;;;;;;;12.45;7.78;;;4.10;57.80;;;;;;5001172;28;20072;-34
2022/03/11 09:46:43;;;;;;;13.40;6.18;;;4.30;60.00;;;;;;5003537;28;20036;-33
2022/03/11 09:49:11;;;;;;;9.40;5.80;;;4.50;57.50;;;;;;5006005;28;20029;-34
2022/03/11 09:51:38;;;;;;;12.00;7.10;;;4.50;54.40;;;;;;4998967;28;20029;-34
2022/03/11 09:54:04;;;;;;;13.00;7.03;;;4.50;55.50;;;;;;5003499;28;20124;-33
2022/03/11 09:56:29;;;;;;;12.43;6.32;;;4.50;56.70;;;;;;5003129;28;22223;-33
2022/03/11 09:58:56;;;;;;;13.27;7.07;;;4.60;59.50;;;;;;5002782;28;21262;-34
2022/03/11 10:01:22;;;;;;;11.77;6.65;;;4.80;55.40;;;;;;5005712;28;20029;-34
2022/03/11 10:03:48;;;;;;;17.85;7.82;;;4.90;54.70;;;;;;5005635;28;20040;-33
2022/03/11 10:06:13;;;;;;;12.82;7.00;;;5.00;53.50;;;;;;4998560;28;20581;-33
2022/03/11 10:08:42;;;;;;;13.32;7.22;;;5.10;53.60;;;;;;5005654;28;20022;-34
2022/03/11 10:11:26;;;;;;;11.35;6.88;;;5.10;53.50;;;;;;5007948;28;20452;-34
2022/03/11 10:14:12;;;;;;;12.35;6.30;;;5.10;55.40;;;;;;4998303;28;20048;-37
2022/03/11 10:16:38;;;;;;;10.82;7.25;;;5.00;55.40;;;;;;5001350;28;21158;-33
2022/03/11 10:19:09;;;;;;;14.95;6.50;;;5.30;53.80;;;;;;5002432;28;20033;-34
2022/03/11 10:21:45;;;;;;;11.90;7.28;;;5.30;54.40;;;;;;5000479;28;20068;-33
2022/03/11 10:24:13;;;;;;;13.82;6.75;;;5.50;53.90;;;;;;4999559;28;20117;-33
2022/03/11 10:26:41;;;;;;;11.82;6.00;;;5.50;52.20;;;;;;4998558;28;20033;-34
2022/03/11 10:29:11;;;;;;;10.70;6.87;;;5.60;51.70;;;;;;5003270;28;20103;-35
2022/03/11 10:31:43;;;;;;;16.52;6.30;;;5.80;53.00;;;;;;5001937;28;20470;-34
2022/03/11 10:34:18;;;;;;;12.07;6.07;;;5.80;51.20;;;;;;5002437;28;20029;-34
2022/03/11 10:36:47;;;;;;;15.00;6.85;;;5.90;52.30;;;;;;4997366;28;20033;-36
2022/03/11 10:39:15;;;;;;;12.43;7.10;;;5.90;51.60;;;;;;4996165;28;20667;-34
2022/03/11 10:41:40;;;;;;;12.02;6.63;;;5.90;49.80;;;;;;4997850;28;20018;-34
2022/03/11 10:44:09;;;;;;;12.60;7.03;;;6.10;51.40;;;;;;4996305;28;20072;-33
2022/03/11 10:46:35;;;;;;;12.32;7.32;;;6.10;50.70;;;;;;4997366;28;20030;-34
2022/03/11 10:49:01;;;;;;;10.52;6.53;;;6.00;51.40;;;;;;4999941;28;20036;-35
2022/03/11 10:51:33;;;;;;;12.38;6.70;;;6.20;52.60;;;;;;5000772;28;20433;-34
2022/03/11 10:54:00;;;;;;;11.20;5.18;;;6.50;51.70;;;;;;4999908;28;20026;-33
2022/03/11 10:56:34;;;;;;;8.40;5.88;;;6.40;49.80;;;;;;5006052;28;20044;-35
2022/03/11 10:59:11;;;;;;;8.65;6.32;;;6.50;50.40;;;;;;4997978;28;20079;-33
2022/03/11 11:01:39;;;;;;;11.00;5.97;;;6.60;47.40;;;;;;4996762;28;20631;-33
2022/03/11 11:04:08;;;;;;;11.52;6.72;;;6.60;49.20;;;;;;4985961;28;20383;-33
2022/03/11 11:06:37;;;;;;;9.45;6.75;;;6.70;47.50;;;;;;5002915;28;20514;-33
2022/03/11 11:09:03;;;;;;;11.30;5.15;;;6.80;49.90;;;;;;5003715;28;20058;-33
2022/03/11 11:11:30;;;;;;;12.38;6.53;;;7.00;49.60;;;;;;5000692;28;20402;-33
2022/03/11 11:13:56;;;;;;;11.60;6.63;;;7.20;47.10;;;;;;4999257;28;20044;-33
2022/03/11 11:16:26;;;;;;;11.75;6.30;;;7.20;50.30;;;;;;5006904;28;20045;-33
2022/03/11 11:18:52;;;;;;;24.33;6.70;;;7.20;46.10;;;;;;5001266;28;20400;-33
2022/03/11 11:21:24;;;;;;;11.02;5.65;;;7.10;47.60;;;;;;5004476;28;20030;-33
2022/03/11 11:23:53;;;;;;;10.48;5.75;;;7.20;50.20;;;;;;5004736;28;20471;-35
2022/03/11 11:26:19;;;;;;;8.15;5.18;;;7.40;47.70;;;;;;4998347;28;20120;-34
2022/03/11 11:28:46;;;;;;;10.15;5.88;;;7.40;48.30;;;;;;5000197;28;20069;-35
2022/03/11 11:31:12;;;;;;;18.33;6.88;;;7.40;48.50;;;;;;4996560;28;20030;-33
2022/03/11 11:33:37;;;;;;;13.40;6.15;;;7.60;46.40;;;;;;5000420;28;20736;-33
2022/03/11 11:36:03;;;;;;;9.07;5.88;;;7.60;46.00;;;;;;5002654;28;20030;-34
2022/03/11 11:38:38;;;;;;;9.30;6.47;;;7.70;45.90;;;;;;4999164;28;20107;-33
2022/03/11 11:41:24;;;;;;;22.50;7.07;;;7.60;46.60;;;;;;4999300;28;20034;-33
2022/03/11 11:43:55;;;;;;;11.75;6.47;;;7.70;45.60;;;;;;5005618;28;20021;-35
2022/03/11 11:46:22;;;;;;;14.32;7.45;;;7.70;44.40;;;;;;4995958;28;20029;-33
2022/03/11 11:48:48;;;;;;;14.68;6.63;;;7.80;46.60;;;;;;4999179;28;20116;-34
2022/03/11 11:51:16;;;;;;;12.98;6.30;;;7.80;44.50;;;;;;5001172;28;20498;-33
2022/03/11 11:53:56;;;;;;;12.10;6.18;;;7.80;45.60;;;;;;5005951;28;20029;-36
2022/03/11 11:56:52;;;;;;;11.65;5.63;;;7.90;44.80;;;;;;4997347;28;20030;-36
2022/03/11 11:59:18;;;;;;;11.65;6.15;;;8.00;44.40;;;;;;4996144;28;20640;-34
2022/03/11 12:01:55;;;;;;;13.35;6.65;;;8.00;43.10;;;;;;5001944;28;20030;-33
2022/03/11 12:04:28;;;;;;;17.42;7.07;;;8.10;43.00;;;;;;4999314;28;20037;-34
2022/03/11 12:06:59;;;;;;;12.55;7.03;;;8.20;43.30;;;;;;4998514;28;20052;-35
2022/03/11 12:09:45;;;;;;;13.20;6.68;;;8.30;45.00;;;;;;4999037;28;20036;-33
2022/03/11 12:15:15;;;;;;;12.63;6.60;;;8.20;42.50;;;;;;4997638;28;20037;-34
2022/03/11 12:17:43;;;;;;;11.05;6.28;;;8.30;42.90;;;;;;4998564;28;20045;-34
2022/03/11 12:20:36;;;;;;;14.88;7.30;;;8.50;43.40;;;;;;5000182;28;20399;-36
2022/03/11 12:23:17;;;;;;;14.07;7.10;;;8.40;41.10;;;;;;4989926;28;20067;-34
2022/03/11 12:25:50;;;;;;;12.52;7.63;;;8.30;41.50;;;;;;4999596;28;20030;-34
2022/03/11 12:28:28;;;;;;;13.40;7.43;;;8.30;42.20;;;;;;5002037;28;20022;-34
2022/03/11 12:31:01;;;;;;;11.10;6.70;;;8.50;43.50;;;;;;5006315;28;20390;-33
2022/03/11 12:33:35;;;;;;;13.75;7.13;;;8.70;42.50;;;;;;5000395;28;20923;-33
2022/03/11 12:36:05;;;;;;;14.32;7.10;;;8.70;41.60;;;;;;5000397;28;20037;-34
2022/03/11 12:38:37;;;;;;;12.13;7.05;;;8.60;42.10;;;;;;5002544;28;20125;-34
2022/03/11 12:41:11;;;;;;;14.63;7.97;;;8.60;42.90;;;;;;5004717;28;20398;-33
2022/03/11 12:43:38;;;;;;;10.15;6.18;;;9.00;43.10;;;;;;5005583;28;20048;-34
2022/03/11 12:46:05;;;;;;;13.63;7.07;;;8.90;40.30;;;;;;5002316;28;20062;-34
2022/03/11 12:48:34;;;;;;;14.10;6.15;;;8.70;40.90;;;;;;4996673;28;20033;-36
2022/03/11 12:51:01;;;;;;;16.17;7.20;;;8.80;41.60;;;;;;4998803;28;20040;-33